createdAt,value
2017-05-30T00:01:57.000Z,58.1
2017-05-30T00:11:57.000Z,58.5
2017-05-30T00:21:57.000Z,58.6
2017-05-30T00:31:57.000Z,58.4
2017-05-30T00:41:57.000Z,57.7
2017-05-30T00:51:57.000Z,57.2
2017-05-30T01:01:57.000Z,56.9
2017-05-30T01:11:57.000Z,56.2
2017-05-30T01:21:57.000Z,55.9
2017-05-30T01:31:57.000Z,55.8
2017-05-30T01:41:57.000Z,56.1
2017-05-30T01:51:57.000Z,56.6
2017-05-30T02:01:57.000Z,57.5
2017-05-30T02:11:57.000Z,57.6
2017-05-30T02:21:57.000Z,58.5
2017-05-30T02:31:57.000Z,59
2017-05-30T02:41:57.000Z,60.5
2017-05-30T02:51:57.000Z,60.9
2017-05-30T03:01:57.000Z,60.9
2017-05-30T03:11:57.000Z,60.8
2017-05-30T03:21:57.000Z,60.7
2017-05-30T03:31:57.000Z,59.7
2017-05-30T03:41:57.000Z,59.3
2017-05-30T03:51:57.000Z,58.7
2017-05-30T04:01:58.000Z,58.6
2017-05-30T04:11:57.000Z,58.6
2017-05-30T04:21:57.000Z,58.8
2017-05-30T04:31:57.000Z,58.7
2017-05-30T04:41:58.000Z,58.8
2017-05-30T04:51:58.000Z,58.3
2017-05-30T05:01:58.000Z,59.2
2017-05-30T05:11:58.000Z,59
2017-05-30T05:21:58.000Z,58.7
2017-05-30T05:31:58.000Z,58.6
2017-05-30T05:41:58.000Z,56.9
2017-05-30T05:51:58.000Z,55.2
2017-05-30T06:01:58.000Z,54.6
2017-05-30T06:11:58.000Z,54.2
2017-05-30T06:21:58.000Z,54.3
2017-05-30T06:31:58.000Z,54.1
2017-05-30T06:41:58.000Z,53.1
2017-05-30T06:51:58.000Z,52.5
2017-05-30T07:01:58.000Z,52.8
2017-05-30T07:11:58.000Z,52
2017-05-30T07:31:58.000Z,51.6
2017-05-30T07:41:58.000Z,52
2017-05-30T10:01:58.000Z,49
2017-05-30T10:41:59.000Z,48.6
2017-05-30T10:51:58.000Z,48.3
2017-05-30T11:01:59.000Z,47.9
2017-05-30T11:11:59.000Z,47.1
2017-05-30T11:21:59.000Z,47
2017-05-30T11:31:59.000Z,47.3
2017-05-30T11:41:59.000Z,45.9
2017-05-30T11:51:59.000Z,45.7
2017-05-30T12:01:59.000Z,46.7
2017-05-30T12:11:59.000Z,46.5
2017-05-30T12:21:59.000Z,52.4
2017-05-30T12:31:59.000Z,55.7
2017-05-30T12:41:59.000Z,57.8
2017-05-30T12:51:59.000Z,58.3
2017-05-30T13:01:59.000Z,57.9
2017-05-30T13:11:59.000Z,54.7
2017-05-30T13:21:59.000Z,54.2
2017-05-30T13:31:59.000Z,55
2017-05-30T13:41:59.000Z,56.9
2017-05-30T13:51:59.000Z,57
2017-05-30T14:01:59.000Z,56.6
2017-05-30T14:12:00.000Z,56.3
2017-05-30T14:21:59.000Z,54.7
2017-05-30T14:31:59.000Z,54.9
2017-05-30T14:41:59.000Z,54.7
2017-05-30T14:51:59.000Z,54.4
2017-05-30T15:02:00.000Z,53.5
2017-05-30T15:11:59.000Z,54.6
2017-05-30T15:21:59.000Z,55.9
2017-05-30T15:31:59.000Z,56.6
2017-05-30T15:41:59.000Z,57.5
2017-05-30T15:51:59.000Z,59.2
2017-05-30T16:02:00.000Z,58.7
2017-05-30T16:11:59.000Z,57.9
2017-05-30T16:21:59.000Z,50.8
2017-05-30T16:31:59.000Z,50.6
2017-05-30T16:41:59.000Z,50.3
2017-05-30T17:02:01.000Z,50.1
2017-05-30T17:11:59.000Z,56.1
2017-05-30T17:21:59.000Z,55.2
2017-05-30T17:31:59.000Z,54.8
2017-05-30T17:42:00.000Z,53.2
2017-05-30T17:52:00.000Z,51.6
2017-05-30T18:02:00.000Z,51.2
2017-05-30T18:12:00.000Z,51
2017-05-30T18:22:00.000Z,50.2
2017-05-30T18:32:00.000Z,49.9
2017-05-30T18:52:00.000Z,49.1
2017-05-30T19:02:00.000Z,47.5
2017-05-30T19:12:00.000Z,46.8
2017-05-30T19:22:01.000Z,46.4
2017-05-30T19:32:00.000Z,46.3
2017-05-30T19:42:00.000Z,44.9
2017-05-30T19:52:02.000Z,43.8
2017-05-30T20:02:00.000Z,42.1
2017-05-30T20:12:00.000Z,42
2017-05-30T20:22:00.000Z,41.7
2017-05-30T20:32:00.000Z,42
2017-05-30T20:42:00.000Z,43.6
2017-05-30T20:52:00.000Z,42.8
2017-05-30T21:02:00.000Z,41.7
2017-05-30T21:12:00.000Z,40.6
2017-05-30T21:22:00.000Z,40.5
2017-05-30T21:32:00.000Z,42
2017-05-30T21:42:00.000Z,42.3
2017-05-30T21:52:02.000Z,42.1
2017-05-30T22:02:00.000Z,42
2017-05-30T22:12:00.000Z,41.9
2017-05-30T22:22:00.000Z,42.4
2017-05-30T22:32:00.000Z,42.5
2017-05-30T22:42:00.000Z,42.6
2017-05-30T22:52:00.000Z,42.4
2017-05-30T23:02:00.000Z,42.4
2017-05-30T23:12:00.000Z,42.8
2017-05-30T23:22:00.000Z,42.9
2017-05-30T23:32:00.000Z,43
2017-05-30T23:42:00.000Z,42.6
2017-05-30T23:52:00.000Z,43
